Time;durP1;ratioP1;P1;durP2;ratioP2;P2;SDS_P1;SDS_P2;PMS_P1;PMS_P2;Temp;Humidity;BMP_temperature;BMP_pressure;BME280_temperature;BME280_humidity;BME280_pressure;Samples;Min_cycle;Max_cycle;Signal;HPM_P1;HPM_P2
2022/09/01 00:00:06;;;;;;;1.10;0.90;;;;;25.00;100971.00;;;;2086830;28;20334;-57
2022/09/01 00:01:25;;;;;;;1.00;0.67;;;;;25.00;100985.00;;;;2095311;28;21088;-56
2022/09/01 00:02:27;;;;;;;1.10;0.63;;;;;25.00;100982.00;;;;2088966;28;21024;-56
2022/09/01 00:03:27;;;;;;;1.20;0.80;;;;;25.00;100974.00;;;;2095413;28;20462;-56
2022/09/01 00:04:28;;;;;;;0.90;0.80;;;;;25.00;100976.00;;;;2095632;28;20504;-56
2022/09/01 00:05:30;;;;;;;1.47;0.83;;;;;25.00;100976.00;;;;2096167;28;20321;-56
2022/09/01 00:06:31;;;;;;;1.03;0.83;;;;;25.00;100974.00;;;;2077082;28;20239;-56
2022/09/01 00:07:34;;;;;;;0.90;0.60;;;;;25.00;100969.00;;;;2086579;28;21164;-56
2022/09/01 00:08:34;;;;;;;0.90;0.70;;;;;25.00;100973.00;;;;2086043;28;20967;-56
2022/09/01 00:09:34;;;;;;;0.97;0.70;;;;;25.00;100974.00;;;;2082536;28;20467;-56
2022/09/01 00:10:35;;;;;;;0.90;0.80;;;;;25.00;100970.00;;;;2093773;28;20220;-56
2022/09/01 00:11:35;;;;;;;0.90;0.50;;;;;25.00;100968.00;;;;2096051;28;20214;-56
2022/09/01 00:12:35;;;;;;;1.20;0.70;;;;;25.00;100973.00;;;;2086256;28;20205;-56
2022/09/01 00:13:36;;;;;;;0.70;0.53;;;;;25.00;100966.00;;;;2088950;28;20208;-56
2022/09/01 00:14:38;;;;;;;0.90;0.70;;;;;24.30;100967.00;;;;2095023;28;20224;-55
2022/09/01 00:15:38;;;;;;;0.75;0.65;;;;;25.00;100972.00;;;;2091696;28;20266;-56
2022/09/01 00:16:39;;;;;;;1.10;0.80;;;;;25.00;100968.00;;;;2090763;28;20255;-56
2022/09/01 00:17:39;;;;;;;0.70;0.53;;;;;25.00;100974.00;;;;2086524;28;20215;-56
2022/09/01 00:18:41;;;;;;;1.13;0.80;;;;;25.00;100973.00;;;;2090532;28;20696;-57
2022/09/01 00:19:41;;;;;;;1.00;0.87;;;;;25.00;100964.00;;;;2095275;28;20350;-57
2022/09/01 00:20:41;;;;;;;1.97;1.10;;;;;25.00;100978.00;;;;2078987;28;20456;-56
2022/09/01 00:21:42;;;;;;;1.03;0.80;;;;;25.00;100976.00;;;;2088436;28;20212;-56
2022/09/01 00:22:43;;;;;;;0.90;0.70;;;;;25.00;100978.00;;;;2093447;28;20204;-56
2022/09/01 00:23:43;;;;;;;1.00;0.90;;;;;25.00;100982.00;;;;2091263;28;20455;-56
2022/09/01 00:24:43;;;;;;;1.20;0.70;;;;;25.00;100980.00;;;;2094732;28;20234;-56
2022/09/01 00:25:44;;;;;;;2.07;0.83;;;;;25.00;100980.00;;;;2093621;28;20245;-56
2022/09/01 00:26:44;;;;;;;1.00;0.70;;;;;25.00;100978.00;;;;2093584;28;20200;-56
2022/09/01 00:27:46;;;;;;;1.10;0.80;;;;;25.00;100970.00;;;;2087393;28;20212;-56
2022/09/01 00:28:46;;;;;;;1.15;0.80;;;;;25.00;100982.00;;;;2095028;28;20200;-56
2022/09/01 00:29:47;;;;;;;0.80;0.63;;;;;25.00;100969.00;;;;2090038;28;20221;-56
2022/09/01 00:30:47;;;;;;;0.90;0.70;;;;;25.00;100975.00;;;;2087078;28;20243;-56
2022/09/01 00:31:47;;;;;;;1.63;0.97;;;;;25.00;100968.00;;;;2094570;28;20259;-56
2022/09/01 00:32:48;;;;;;;0.90;0.60;;;;;25.00;100972.00;;;;2087778;28;20306;-55
2022/09/01 00:33:48;;;;;;;1.00;0.70;;;;;25.00;100967.00;;;;2087165;28;20223;-56
2022/09/01 00:34:49;;;;;;;0.80;0.63;;;;;25.00;100963.00;;;;2087162;28;20212;-56
2022/09/01 00:35:49;;;;;;;1.40;0.73;;;;;25.00;100975.00;;;;2087282;28;20280;-56
2022/09/01 00:36:49;;;;;;;1.03;0.73;;;;;25.00;100975.00;;;;2087152;28;20254;-56
2022/09/01 00:37:50;;;;;;;0.80;0.70;;;;;25.00;100985.00;;;;2086432;28;20212;-56
2022/09/01 00:38:50;;;;;;;0.80;0.60;;;;;25.00;100964.00;;;;2094656;28;20208;-56
2022/09/01 00:39:50;;;;;;;1.20;0.90;;;;;25.00;100953.00;;;;2084018;28;20842;-56
2022/09/01 00:40:51;;;;;;;0.87;0.73;;;;;24.30;100976.00;;;;2086646;28;20212;-56
2022/09/01 00:41:51;;;;;;;1.07;0.70;;;;;25.00;100982.00;;;;2087979;28;20217;-56
2022/09/01 00:42:52;;;;;;;0.97;0.60;;;;;25.00;100983.00;;;;2095019;28;20303;-56
2022/09/01 00:43:53;;;;;;;1.30;0.80;;;;;25.00;100972.00;;;;2078295;28;20263;-56
2022/09/01 00:44:54;;;;;;;1.00;0.80;;;;;25.00;100981.00;;;;2086692;28;20751;-56
2022/09/01 00:45:56;;;;;;;1.00;0.77;;;;;25.00;100973.00;;;;2095724;28;20293;-56
2022/09/01 00:46:57;;;;;;;1.10;0.80;;;;;25.00;100973.00;;;;2094977;28;20216;-56
2022/09/01 00:47:57;;;;;;;1.40;0.83;;;;;25.00;100984.00;;;;2086017;28;20485;-56
2022/09/01 00:48:58;;;;;;;1.20;0.83;;;;;25.00;100962.00;;;;2095044;28;20606;-56
2022/09/01 00:49:59;;;;;;;1.23;0.73;;;;;25.00;100973.00;;;;2094828;28;20223;-56
2022/09/01 00:50:59;;;;;;;1.03;0.73;;;;;25.00;100962.00;;;;2086500;28;20815;-55
2022/09/01 00:52:30;;;;;;;1.27;1.00;;;;;25.00;100958.00;;;;2094785;28;20606;-56
2022/09/01 00:53:30;;;;;;;1.07;0.80;;;;;25.00;100970.00;;;;2086742;28;20208;-55
2022/09/01 00:54:33;;;;;;;1.53;0.60;;;;;25.00;100942.00;;;;2086249;28;20493;-56
2022/09/01 00:55:34;;;;;;;1.17;0.90;;;;;24.90;100963.00;;;;2078832;28;20224;-56
2022/09/01 00:56:34;;;;;;;0.90;0.60;;;;;25.00;100968.00;;;;2078492;28;20459;-56
2022/09/01 00:57:34;;;;;;;1.40;0.80;;;;;25.00;100964.00;;;;2077455;28;20308;-56
2022/09/01 00:58:35;;;;;;;1.77;0.97;;;;;25.00;100954.00;;;;2091436;28;20237;-56
2022/09/01 00:59:37;;;;;;;0.97;0.77;;;;;25.00;100965.00;;;;2086518;28;20229;-57
2022/09/01 01:00:39;;;;;;;0.90;0.70;;;;;25.00;100962.00;;;;2078110;28;20217;-58
2022/09/01 01:01:40;;;;;;;0.90;0.60;;;;;25.00;100969.00;;;;2085422;28;20963;-56
2022/09/01 01:02:40;;;;;;;1.10;0.77;;;;;25.00;100963.00;;;;2093954;28;20463;-56
2022/09/01 01:03:43;;;;;;;1.13;0.90;;;;;25.00;100964.00;;;;2094169;28;20220;-56
2022/09/01 01:04:45;;;;;;;0.93;0.80;;;;;25.00;100962.00;;;;2094854;28;20220;-56
2022/09/01 01:05:53;;;;;;;0.70;0.67;;;;;25.00;100965.00;;;;2095100;28;20446;-56
2022/09/01 01:07:01;;;;;;;0.98;0.68;;;;;25.00;100964.00;;;;2083967;28;20567;-57
2022/09/01 01:08:01;;;;;;;0.70;0.60;;;;;25.00;100934.00;;;;2086051;28;20221;-56
2022/09/01 01:09:01;;;;;;;1.27;0.70;;;;;25.00;100964.00;;;;2085470;28;20585;-56
2022/09/01 01:10:02;;;;;;;1.07;0.57;;;;;25.00;100962.00;;;;2077823;28;20217;-56
2022/09/01 01:11:05;;;;;;;0.87;0.67;;;;;25.00;100962.00;;;;2094029;28;20253;-56
2022/09/01 01:12:05;;;;;;;0.70;0.52;;;;;25.00;100960.00;;;;2076372;28;20531;-56
2022/09/01 01:13:11;;;;;;;1.10;0.90;;;;;25.00;100965.00;;;;2077942;28;20220;-55
2022/09/01 01:14:14;;;;;;;1.48;0.80;;;;;25.00;100961.00;;;;2086674;28;20213;-56
2022/09/01 01:15:16;;;;;;;0.77;0.57;;;;;25.00;100956.00;;;;2094043;28;20295;-56
2022/09/01 01:16:16;;;;;;;1.13;0.63;;;;;25.00;100960.00;;;;2094619;28;20468;-55
2022/09/01 01:17:18;;;;;;;1.00;0.67;;;;;25.00;100954.00;;;;2094481;28;20496;-56
2022/09/01 01:18:18;;;;;;;1.00;0.70;;;;;25.00;100963.00;;;;2093561;28;20216;-56
2022/09/01 01:23:02;;;;;;;1.20;0.80;;;;;25.00;100951.00;;;;2082814;28;20216;-56
2022/09/01 01:24:27;;;;;;;0.90;0.77;;;;;24.90;100956.00;;;;2090140;28;20450;-57
2022/09/01 01:25:33;;;;;;;1.00;0.60;;;;;25.00;100950.00;;;;2092883;28;20845;-57
2022/09/01 01:26:33;;;;;;;1.03;0.73;;;;;25.00;100956.00;;;;2085947;28;20447;-56
2022/09/01 01:27:34;;;;;;;1.13;0.80;;;;;25.00;100953.00;;;;2093733;28;20458;-57
2022/09/01 01:28:37;;;;;;;1.20;0.70;;;;;25.00;100956.00;;;;2095508;28;20222;-56
2022/09/01 01:29:38;;;;;;;0.97;0.70;;;;;25.00;100953.00;;;;2095288;28;20216;-57
2022/09/01 01:30:42;;;;;;;0.88;0.57;;;;;25.00;100945.00;;;;2095337;28;20454;-56
2022/09/01 01:31:42;;;;;;;1.10;0.73;;;;;25.00;100955.00;;;;2086431;28;20612;-59
2022/09/01 01:32:46;;;;;;;0.93;0.73;;;;;25.00;100957.00;;;;2078137;28;20456;-59
2022/09/01 01:33:49;;;;;;;0.70;0.53;;;;;25.00;100962.00;;;;2094501;28;20219;-56
2022/09/01 01:34:50;;;;;;;1.20;0.70;;;;;25.00;100959.00;;;;2079269;28;20448;-56
2022/09/01 01:35:51;;;;;;;0.90;0.80;;;;;25.00;100953.00;;;;2070114;28;20453;-56
2022/09/01 01:36:52;;;;;;;1.30;0.90;;;;;25.00;100950.00;;;;2074894;28;20450;-56
2022/09/01 01:37:53;;;;;;;1.47;0.80;;;;;25.00;100962.00;;;;2074975;28;20210;-56
2022/09/01 01:38:54;;;;;;;1.00;0.60;;;;;25.00;100953.00;;;;2086477;28;20212;-56
2022/09/01 01:39:54;;;;;;;1.23;0.80;;;;;25.00;100961.00;;;;2094309;28;20537;-56
2022/09/01 01:40:55;;;;;;;0.93;0.63;;;;;25.00;100955.00;;;;2095256;28;20456;-56
2022/09/01 01:41:57;;;;;;;1.30;0.77;;;;;25.00;100954.00;;;;2095257;28;20200;-56
2022/09/01 01:42:59;;;;;;;1.10;0.80;;;;;25.00;100958.00;;;;2086480;28;20235;-56
2022/09/01 01:44:03;;;;;;;1.00;0.70;;;;;25.00;100950.00;;;;2087228;28;20482;-56
2022/09/01 01:45:03;;;;;;;0.90;0.60;;;;;25.00;100947.00;;;;2102174;28;20457;-56
2022/09/01 01:46:05;;;;;;;1.07;0.87;;;;;25.00;100956.00;;;;2095369;28;20520;-56
2022/09/01 01:47:08;;;;;;;1.40;0.80;;;;;25.00;100961.00;;;;2086282;28;20575;-56
2022/09/01 01:48:09;;;;;;;0.90;0.80;;;;;24.90;100960.00;;;;2078059;28;20448;-56
2022/09/01 01:49:12;;;;;;;1.00;0.80;;;;;25.00;100905.00;;;;2094558;28;20529;-56
2022/09/01 01:50:14;;;;;;;1.17;0.90;;;;;24.90;100965.00;;;;2086241;28;20258;-56
2022/09/01 01:51:16;;;;;;;2.30;0.80;;;;;25.00;100958.00;;;;2077910;28;20441;-56
2022/09/01 01:52:19;;;;;;;1.33;0.97;;;;;25.00;100961.00;;;;2081231;28;20898;-56
2022/09/01 01:53:19;;;;;;;1.07;0.80;;;;;24.90;100965.00;;;;2086513;28;20460;-56
2022/09/01 01:54:21;;;;;;;1.23;0.73;;;;;24.90;100969.00;;;;2086683;28;20455;-57
2022/09/01 01:55:26;;;;;;;1.00;0.90;;;;;24.90;100967.00;;;;2087020;28;20240;-56
2022/09/01 01:56:27;;;;;;;1.10;0.70;;;;;24.50;100969.00;;;;2086879;28;21034;-56
2022/09/01 01:57:31;;;;;;;1.20;0.80;;;;;25.00;100976.00;;;;2086116;28;20451;-56
2022/09/01 01:58:32;;;;;;;1.00;0.80;;;;;25.00;100977.00;;;;2087023;28;20296;-56
2022/09/01 01:59:32;;;;;;;1.23;0.70;;;;;25.00;100975.00;;;;2077845;28;20452;-56
2022/09/01 02:00:33;;;;;;;1.10;0.83;;;;;25.00;100975.00;;;;2078095;28;20510;-56
2022/09/01 02:01:33;;;;;;;0.80;0.60;;;;;24.90;100982.00;;;;2090761;28;20582;-57
2022/09/01 02:02:34;;;;;;;1.30;0.70;;;;;24.90;100980.00;;;;2094512;28;20226;-56
2022/09/01 02:03:40;;;;;;;1.00;0.80;;;;;24.90;100985.00;;;;2094354;28;20231;-57
2022/09/01 02:04:42;;;;;;;1.20;0.90;;;;;24.90;100976.00;;;;2094435;28;20219;-56
2022/09/01 02:05:42;;;;;;;1.23;0.70;;;;;25.00;100977.00;;;;2094979;28;20549;-56
2022/09/01 02:06:44;;;;;;;1.20;0.97;;;;;24.90;100978.00;;;;2091530;28;20455;-56
2022/09/01 02:07:45;;;;;;;0.77;0.70;;;;;24.90;100973.00;;;;2077588;28;20624;-56
2022/09/01 02:08:45;;;;;;;1.00;0.70;;;;;24.90;100969.00;;;;2089413;28;20439;-56
2022/09/01 02:09:47;;;;;;;1.30;0.93;;;;;24.90;100976.00;;;;2086410;28;20688;-56
2022/09/01 02:10:49;;;;;;;1.00;0.87;;;;;24.90;100968.00;;;;2077846;28;20652;-57
2022/09/01 02:11:53;;;;;;;1.05;0.70;;;;;24.90;100977.00;;;;2077020;28;20437;-57
2022/09/01 02:12:53;;;;;;;1.00;0.70;;;;;24.90;100981.00;;;;2078292;28;20260;-56
2022/09/01 02:13:57;;;;;;;1.40;0.90;;;;;24.90;100980.00;;;;2092195;28;20478;-56
2022/09/01 02:14:59;;;;;;;1.00;0.70;;;;;24.90;100979.00;;;;2094217;28;20287;-56
2022/09/01 02:16:02;;;;;;;2.00;0.93;;;;;24.90;100976.00;;;;2094395;28;20442;-56
2022/09/01 02:17:06;;;;;;;0.77;0.67;;;;;24.90;100981.00;;;;2094225;28;20458;-56
2022/09/01 02:18:06;;;;;;;1.02;0.80;;;;;24.90;100975.00;;;;2085889;28;20456;-56
2022/09/01 02:19:07;;;;;;;1.07;0.70;;;;;24.90;100976.00;;;;2093701;28;20208;-55
2022/09/01 02:20:08;;;;;;;1.00;0.70;;;;;24.90;100982.00;;;;2094866;28;20216;-56
2022/09/01 02:21:09;;;;;;;1.13;0.80;;;;;24.90;100974.00;;;;2094278;28;20453;-56
2022/09/01 02:22:10;;;;;;;0.93;0.60;;;;;24.90;100982.00;;;;2085165;28;20478;-56
2022/09/01 02:23:11;;;;;;;1.70;0.67;;;;;24.90;101001.00;;;;2086160;28;20859;-56
2022/09/01 02:24:11;;;;;;;1.53;0.90;;;;;24.90;100970.00;;;;2091688;28;20543;-56
2022/09/01 02:25:15;;;;;;;1.07;0.70;;;;;24.90;100979.00;;;;2094703;28;20464;-56
2022/09/01 02:26:16;;;;;;;1.10;0.70;;;;;24.90;100972.00;;;;2094843;28;20247;-56
2022/09/01 02:27:20;;;;;;;0.97;0.70;;;;;24.90;100972.00;;;;2091765;28;20443;-56
2022/09/01 02:28:21;;;;;;;0.90;0.70;;;;;24.90;100974.00;;;;2086659;28;20466;-56
2022/09/01 02:29:27;;;;;;;1.00;0.83;;;;;24.90;100984.00;;;;2086669;28;20857;-56
2022/09/01 02:30:31;;;;;;;1.27;0.87;;;;;24.90;100974.00;;;;2077399;28;20225;-56
2022/09/01 02:31:34;;;;;;;1.10;0.70;;;;;24.90;100981.00;;;;2087538;28;20451;-56
2022/09/01 02:32:34;;;;;;;1.00;0.70;;;;;24.90;100982.00;;;;2085898;28;20546;-56
2022/09/01 02:33:36;;;;;;;0.90;0.60;;;;;24.90;100976.00;;;;2086552;28;20481;-56
2022/09/01 02:34:38;;;;;;;0.80;0.63;;;;;24.90;100978.00;;;;2086009;28;20227;-57
2022/09/01 02:35:39;;;;;;;1.13;0.73;;;;;24.90;100981.00;;;;2086131;28;20470;-56
2022/09/01 02:36:43;;;;;;;1.20;0.87;;;;;24.90;100976.00;;;;2094922;28;20489;-56
2022/09/01 02:37:48;;;;;;;1.00;0.70;;;;;24.90;100981.00;;;;2085050;28;20778;-57
2022/09/01 02:38:49;;;;;;;1.50;0.87;;;;;24.90;100973.00;;;;2070994;28;20525;-57
2022/09/01 02:39:52;;;;;;;1.20;0.70;;;;;24.90;100977.00;;;;2085962;28;20836;-57
2022/09/01 02:40:52;;;;;;;1.30;0.90;;;;;24.90;100985.00;;;;2077926;28;20499;-56
2022/09/01 02:41:53;;;;;;;1.43;0.73;;;;;24.90;100970.00;;;;2069829;28;20457;-56
2022/09/01 02:42:54;;;;;;;1.10;0.80;;;;;24.90;100966.00;;;;2076469;28;20213;-55
2022/09/01 02:43:54;;;;;;;1.57;0.67;;;;;24.90;100981.00;;;;2094181;28;20584;-59
2022/09/01 02:44:55;;;;;;;0.93;0.67;;;;;24.90;100969.00;;;;2090951;28;21013;-58
2022/09/01 02:45:58;;;;;;;1.03;0.70;;;;;24.90;100973.00;;;;2094682;28;20482;-57
2022/09/01 02:46:59;;;;;;;0.90;0.70;;;;;24.60;100975.00;;;;2095015;28;20216;-55
2022/09/01 02:47:59;;;;;;;1.00;0.80;;;;;24.90;100979.00;;;;2093120;28;20540;-57
2022/09/01 02:49:00;;;;;;;1.20;0.90;;;;;24.90;100973.00;;;;2085823;28;20458;-56
2022/09/01 02:50:02;;;;;;;1.00;0.70;;;;;24.90;100972.00;;;;2094295;28;20212;-57
2022/09/01 02:51:10;;;;;;;0.97;0.70;;;;;24.90;100978.00;;;;2094918;28;20650;-56
2022/09/01 02:52:12;;;;;;;0.97;0.60;;;;;24.90;100985.00;;;;2095002;28;21064;-56
2022/09/01 02:53:15;;;;;;;1.20;0.90;;;;;24.90;100976.00;;;;2086032;28;20971;-56
2022/09/01 02:54:17;;;;;;;0.80;0.63;;;;;24.90;100978.00;;;;2086744;28;20448;-56
2022/09/01 02:55:20;;;;;;;1.07;0.90;;;;;24.90;100979.00;;;;2102220;28;20991;-57
2022/09/01 02:56:22;;;;;;;0.95;0.82;;;;;24.90;100979.00;;;;2094967;28;20462;-57
2022/09/01 02:57:23;;;;;;;0.90;0.60;;;;;24.90;100976.00;;;;2092406;28;20223;-57
2022/09/01 02:58:28;;;;;;;0.98;0.85;;;;;24.90;100977.00;;;;2077710;28;20891;-56
2022/09/01 02:59:29;;;;;;;0.90;0.70;;;;;24.90;100967.00;;;;2084294;28;20315;-56
2022/09/01 03:00:30;;;;;;;0.90;0.70;;;;;24.90;100972.00;;;;2086303;28;20693;-56
2022/09/01 03:01:31;;;;;;;0.80;0.60;;;;;24.90;100968.00;;;;2094327;28;20461;-56
2022/09/01 03:02:32;;;;;;;1.00;0.80;;;;;24.90;100974.00;;;;2086848;28;20452;-56
2022/09/01 03:03:34;;;;;;;1.00;0.60;;;;;24.90;100970.00;;;;2087495;28;20477;-56
2022/09/01 03:04:35;;;;;;;0.90;0.65;;;;;24.90;100964.00;;;;2078304;28;20530;-56
2022/09/01 03:05:37;;;;;;;1.07;0.83;;;;;24.90;100971.00;;;;2078858;28;20304;-56
2022/09/01 03:06:38;;;;;;;1.17;0.90;;;;;24.90;100968.00;;;;2087384;28;20327;-57
2022/09/01 03:07:41;;;;;;;1.03;0.90;;;;;24.90;100974.00;;;;2077764;28;20628;-56
2022/09/01 03:08:41;;;;;;;1.10;0.70;;;;;24.90;100973.00;;;;2079303;28;20220;-56
2022/09/01 03:09:42;;;;;;;0.80;0.60;;;;;24.90;100976.00;;;;2087142;28;20470;-56
2022/09/01 03:10:43;;;;;;;0.90;0.67;;;;;24.90;100975.00;;;;2087362;28;20209;-56
2022/09/01 03:11:45;;;;;;;1.60;0.80;;;;;24.90;100968.00;;;;2083271;28;20967;-56
2022/09/01 03:12:45;;;;;;;1.20;0.80;;;;;24.90;100974.00;;;;2087439;28;20697;-56
2022/09/01 03:13:46;;;;;;;1.07;0.73;;;;;24.90;100981.00;;;;2095654;28;20220;-56
2022/09/01 03:14:46;;;;;;;0.87;0.70;;;;;24.90;100984.00;;;;2080475;28;20241;-56
2022/09/01 03:15:46;;;;;;;1.10;0.73;;;;;24.90;100983.00;;;;2078685;28;20659;-56
2022/09/01 03:16:47;;;;;;;1.27;0.70;;;;;24.90;100983.00;;;;2087939;28;21111;-56
2022/09/01 03:17:47;;;;;;;1.23;0.80;;;;;24.90;100982.00;;;;2086337;28;20648;-56
2022/09/01 03:18:49;;;;;;;0.90;0.70;;;;;24.90;100989.00;;;;2087488;28;20221;-56
2022/09/01 03:19:50;;;;;;;1.10;0.90;;;;;24.90;100982.00;;;;2087478;28;20681;-56
2022/09/01 03:20:51;;;;;;;1.00;0.70;;;;;24.90;100985.00;;;;2092387;28;20848;-57
2022/09/01 03:21:52;;;;;;;1.27;0.90;;;;;24.90;100985.00;;;;2085315;28;20502;-56
2022/09/01 03:22:52;;;;;;;1.47;0.70;;;;;24.90;100986.00;;;;2086451;28;20216;-56
2022/09/01 03:23:52;;;;;;;1.10;0.90;;;;;24.90;100982.00;;;;2087099;28;20217;-56
2022/09/01 03:24:53;;;;;;;0.90;0.70;;;;;24.90;100981.00;;;;2079029;28;20209;-56
2022/09/01 03:25:53;;;;;;;1.40;0.70;;;;;24.90;100981.00;;;;2087180;28;20209;-56
2022/09/01 03:26:55;;;;;;;1.07;0.80;;;;;24.90;100983.00;;;;2094224;28;20231;-57
2022/09/01 03:28:00;;;;;;;1.10;0.70;;;;;24.90;100979.00;;;;2087293;28;20208;-56
2022/09/01 03:29:01;;;;;;;3.03;0.60;;;;;24.90;100982.00;;;;2087463;28;20460;-56
2022/09/01 03:30:01;;;;;;;0.83;0.70;;;;;24.90;100982.00;;;;2079400;28;20453;-60
2022/09/01 03:31:02;;;;;;;1.20;0.80;;;;;24.90;100985.00;;;;2082639;28;20448;-57
2022/09/01 03:32:03;;;;;;;1.10;0.70;;;;;24.90;100984.00;;;;2079165;28;20213;-56
2022/09/01 03:33:03;;;;;;;1.20;0.70;;;;;24.80;100982.00;;;;2088938;28;20217;-57
2022/09/01 03:34:04;;;;;;;1.10;0.93;;;;;24.80;100989.00;;;;2096357;28;20477;-56
2022/09/01 03:35:05;;;;;;;0.80;0.60;;;;;24.80;100986.00;;;;2091039;28;20244;-56
2022/09/01 03:36:06;;;;;;;1.37;0.60;;;;;24.80;100986.00;;;;2094996;28;20459;-56
2022/09/01 03:37:08;;;;;;;1.13;0.90;;;;;24.80;100989.00;;;;2095004;28;20215;-56
2022/09/01 03:38:08;;;;;;;1.03;0.90;;;;;24.80;100988.00;;;;2095154;28;20450;-56
2022/09/01 03:39:09;;;;;;;1.03;0.80;;;;;24.80;100979.00;;;;2091129;28;20451;-56
2022/09/01 03:40:10;;;;;;;1.00;0.70;;;;;24.90;100988.00;;;;2094953;28;20299;-56
2022/09/01 03:41:11;;;;;;;1.10;0.60;;;;;24.80;100984.00;;;;2090379;28;20229;-56
2022/09/01 03:42:18;;;;;;;1.00;0.73;;;;;24.80;100981.00;;;;2087394;28;21115;-56
2022/09/01 03:43:22;;;;;;;0.97;0.60;;;;;24.80;100985.00;;;;2092048;28;20519;-56
2022/09/01 03:44:22;;;;;;;1.00;0.90;;;;;24.80;100985.00;;;;2086706;28;20852;-56
2022/09/01 03:45:24;;;;;;;1.40;0.73;;;;;24.80;100975.00;;;;2087274;28;20217;-56
2022/09/01 03:46:25;;;;;;;0.97;0.70;;;;;24.80;100976.00;;;;2091399;28;20227;-56
2022/09/01 03:47:26;;;;;;;0.80;0.50;;;;;24.80;100980.00;;;;2090563;28;20909;-56
2022/09/01 03:48:30;;;;;;;0.87;0.70;;;;;24.80;100976.00;;;;2087728;28;20455;-56
2022/09/01 03:49:30;;;;;;;0.90;0.80;;;;;24.80;100987.00;;;;2082087;28;20224;-56
2022/09/01 03:50:31;;;;;;;0.97;0.63;;;;;24.80;100974.00;;;;2078703;28;20472;-56
2022/09/01 03:51:31;;;;;;;1.20;0.70;;;;;24.80;100979.00;;;;2090430;28;20208;-56
2022/09/01 03:52:32;;;;;;;0.80;0.57;;;;;24.80;100986.00;;;;2090517;28;20558;-56
2022/09/01 03:53:34;;;;;;;1.20;0.70;;;;;24.80;100981.00;;;;2091465;28;20575;-56
2022/09/01 03:54:35;;;;;;;1.03;0.70;;;;;24.80;100983.00;;;;2087507;28;20696;-57
2022/09/01 03:55:37;;;;;;;0.83;0.63;;;;;24.80;100976.00;;;;2087816;28;20452;-56
2022/09/01 03:56:40;;;;;;;1.10;0.80;;;;;24.80;100977.00;;;;2085632;28;20326;-57
2022/09/01 03:57:41;;;;;;;0.97;0.70;;;;;24.80;100970.00;;;;2079397;28;20452;-57
2022/09/01 03:58:45;;;;;;;1.27;0.70;;;;;24.80;100976.00;;;;2094039;28;20481;-56
2022/09/01 03:59:46;;;;;;;1.00;0.70;;;;;24.80;100981.00;;;;2091114;28;20891;-56
2022/09/01 04:00:54;;;;;;;1.07;0.70;;;;;24.80;100981.00;;;;2091336;28;20528;-56
2022/09/01 04:01:56;;;;;;;0.90;0.70;;;;;24.80;100979.00;;;;2090624;28;20292;-56
2022/09/01 04:02:57;;;;;;;1.00;0.80;;;;;24.80;100978.00;;;;2090956;28;20434;-57
2022/09/01 04:03:57;;;;;;;1.23;0.80;;;;;24.80;100971.00;;;;2091389;28;21182;-57
2022/09/01 04:04:59;;;;;;;2.53;0.97;;;;;24.80;100975.00;;;;2092513;28;20454;-56
2022/09/01 04:06:00;;;;;;;1.07;0.80;;;;;24.80;100970.00;;;;2092473;28;20225;-56
2022/09/01 04:07:01;;;;;;;1.00;0.80;;;;;24.80;100975.00;;;;2092171;28;21245;-56
2022/09/01 04:08:04;;;;;;;1.17;0.73;;;;;24.80;100972.00;;;;2090674;28;20489;-57
2022/09/01 04:09:05;;;;;;;0.80;0.63;;;;;24.80;100974.00;;;;2078867;28;20217;-56
2022/09/01 04:10:10;;;;;;;1.10;0.70;;;;;24.80;100964.00;;;;2078794;28;20564;-56
2022/09/01 04:11:15;;;;;;;1.30;0.90;;;;;24.80;100966.00;;;;2078461;28;20292;-56
2022/09/01 04:12:16;;;;;;;1.43;0.70;;;;;24.80;100973.00;;;;2079400;28;20456;-56
2022/09/01 04:13:21;;;;;;;1.00;0.63;;;;;24.80;100970.00;;;;2086876;28;20475;-55
2022/09/01 04:14:24;;;;;;;0.90;0.70;;;;;24.80;100969.00;;;;2086867;28;20223;-56
2022/09/01 04:15:25;;;;;;;1.10;0.80;;;;;24.80;100972.00;;;;2087333;28;20526;-55
2022/09/01 04:18:08;;;;;;;1.00;0.70;;;;;24.80;100974.00;;;;2093598;28;20450;-55
2022/09/01 04:19:18;;;;;;;1.00;0.70;;;;;24.80;100982.00;;;;2095891;28;21009;-56
2022/09/01 04:20:20;;;;;;;1.00;0.80;;;;;24.80;100974.00;;;;2094506;28;20451;-55
2022/09/01 04:21:21;;;;;;;1.30;0.80;;;;;24.80;100982.00;;;;2094928;28;20553;-55
2022/09/01 04:22:22;;;;;;;1.00;0.77;;;;;24.80;100973.00;;;;2095291;28;20974;-57
2022/09/01 04:23:28;;;;;;;1.20;0.90;;;;;24.80;100976.00;;;;2095441;28;20220;-56
2022/09/01 04:24:30;;;;;;;1.13;0.80;;;;;24.80;100974.00;;;;2094808;28;20875;-55
2022/09/01 04:25:32;;;;;;;1.20;0.80;;;;;24.80;100980.00;;;;2095030;28;20536;-55
2022/09/01 04:26:32;;;;;;;0.90;0.80;;;;;24.80;100966.00;;;;2094970;28;20512;-56
2022/09/01 04:27:39;;;;;;;0.87;0.70;;;;;24.80;100975.00;;;;2094104;28;20528;-57
2022/09/01 04:28:44;;;;;;;1.43;0.87;;;;;24.80;100979.00;;;;2095594;28;20222;-56
2022/09/01 04:29:45;;;;;;;1.27;0.97;;;;;24.80;100976.00;;;;2094443;28;21126;-56
2022/09/01 04:30:47;;;;;;;1.00;0.80;;;;;24.80;100974.00;;;;2094882;28;20454;-56
2022/09/01 04:31:50;;;;;;;0.80;0.60;;;;;24.80;100970.00;;;;2095468;28;20473;-55
2022/09/01 04:32:54;;;;;;;1.00;0.80;;;;;24.80;100977.00;;;;2095703;28;20871;-56
2022/09/01 04:33:55;;;;;;;1.00;0.80;;;;;24.80;100976.00;;;;2095635;28;20450;-56
2022/09/01 04:34:55;;;;;;;1.07;0.73;;;;;24.80;100975.00;;;;2095106;28;20465;-57
2022/09/01 04:35:56;;;;;;;1.37;0.70;;;;;24.80;100973.00;;;;2094543;28;20224;-56
2022/09/01 04:36:56;;;;;;;0.80;0.60;;;;;24.80;100970.00;;;;2095486;28;20250;-56
2022/09/01 04:37:58;;;;;;;1.40;0.80;;;;;24.80;100974.00;;;;2094701;28;20208;-56
2022/09/01 04:38:59;;;;;;;1.03;0.70;;;;;24.80;100973.00;;;;2095341;28;20208;-56
2022/09/01 04:40:00;;;;;;;1.10;0.88;;;;;24.80;100973.00;;;;2087448;28;21009;-55
2022/09/01 04:41:05;;;;;;;1.13;0.90;;;;;24.80;100974.00;;;;2087411;28;20217;-56
2022/09/01 04:42:07;;;;;;;0.83;0.70;;;;;24.80;100969.00;;;;2090237;28;20311;-57
2022/09/01 04:43:08;;;;;;;1.10;0.80;;;;;24.80;100975.00;;;;2092802;28;21401;-55
2022/09/01 04:44:08;;;;;;;1.00;0.60;;;;;24.80;100967.00;;;;2094920;28;20557;-56
2022/09/01 04:45:09;;;;;;;1.30;0.90;;;;;24.80;100975.00;;;;2094605;28;20212;-56
2022/09/01 04:46:13;;;;;;;1.50;0.80;;;;;24.80;100968.00;;;;2086538;28;20232;-57
2022/09/01 04:47:15;;;;;;;1.57;0.80;;;;;24.80;100927.00;;;;2077651;28;20906;-57
2022/09/01 04:48:18;;;;;;;0.90;0.70;;;;;24.80;100976.00;;;;2078744;28;20456;-56
2022/09/01 04:49:21;;;;;;;0.90;0.80;;;;;24.80;100971.00;;;;2094703;28;20512;-56
2022/09/01 04:50:22;;;;;;;1.10;0.83;;;;;24.80;100980.00;;;;2094385;28;20463;-56
2022/09/01 04:51:26;;;;;;;0.90;0.70;;;;;24.80;100974.00;;;;2094731;28;20546;-57
2022/09/01 04:52:27;;;;;;;0.93;0.60;;;;;24.80;100981.00;;;;2094529;28;20968;-56
2022/09/01 04:53:28;;;;;;;0.90;0.80;;;;;24.80;100975.00;;;;2094028;28;20462;-56
2022/09/01 04:54:31;;;;;;;1.00;0.70;;;;;24.80;100979.00;;;;2095053;28;20220;-56
2022/09/01 04:55:31;;;;;;;1.00;0.70;;;;;24.80;100984.00;;;;2094527;28;20455;-57
2022/09/01 04:56:34;;;;;;;1.00;0.60;;;;;24.80;100977.00;;;;2095159;28;20770;-56
2022/09/01 04:57:35;;;;;;;0.83;0.73;;;;;24.80;100977.00;;;;2094385;28;22367;-56
2022/09/01 04:58:35;;;;;;;1.23;0.93;;;;;24.80;100977.00;;;;2093725;28;20554;-56
2022/09/01 04:59:36;;;;;;;1.33;0.97;;;;;24.80;100978.00;;;;2094476;28;20486;-56
2022/09/01 05:00:36;;;;;;;0.90;0.70;;;;;24.80;100977.00;;;;2094564;28;20208;-56
2022/09/01 05:01:44;;;;;;;1.20;0.90;;;;;24.80;100977.00;;;;2094487;28;20639;-56
2022/09/01 05:02:44;;;;;;;1.00;0.87;;;;;24.80;100974.00;;;;2095165;28;20688;-56
2022/09/01 05:03:47;;;;;;;0.80;0.60;;;;;24.80;100978.00;;;;2093994;28;20536;-56
2022/09/01 05:04:48;;;;;;;1.00;0.70;;;;;24.70;100976.00;;;;2085786;28;20733;-57
2022/09/01 05:05:49;;;;;;;1.23;0.90;;;;;24.80;100984.00;;;;2086484;28;20492;-56
2022/09/01 05:06:54;;;;;;;1.00;0.70;;;;;24.80;100977.00;;;;2086174;28;20459;-56
2022/09/01 05:07:56;;;;;;;1.20;0.80;;;;;24.80;100976.00;;;;2081995;28;20685;-56
2022/09/01 05:08:56;;;;;;;1.10;0.80;;;;;24.80;100983.00;;;;2085855;28;20581;-56
2022/09/01 05:09:57;;;;;;;0.90;0.80;;;;;24.80;100987.00;;;;2087086;28;20574;-56
2022/09/01 05:10:57;;;;;;;1.30;1.03;;;;;24.80;101003.00;;;;2087220;28;20201;-56